Time;durP1;ratioP1;P1;durP2;ratioP2;P2;SDS_P1;SDS_P2;PMS_P1;PMS_P2;Temp;Humidity;BMP_temperature;BMP_pressure;BME280_temperature;BME280_humidity;BME280_pressure;Samples;Min_cycle;Max_cycle;Signal;HPM_P1;HPM_P2
2022/06/11 00:01:50;;;;;;;6.07;5.40;;;17.70;99.90;;;;;;5053861;28;20208;-69
2022/06/11 00:04:24;;;;;;;6.65;5.90;;;17.60;99.90;;;;;;5053793;28;20295;-70
2022/06/11 00:06:54;;;;;;;6.20;5.70;;;17.60;99.90;;;;;;5053822;28;20204;-69
2022/06/11 00:09:23;;;;;;;5.93;5.53;;;17.50;99.90;;;;;;5054122;28;20594;-69
2022/06/11 00:11:52;;;;;;;5.88;5.38;;;17.60;99.90;;;;;;5053754;28;20295;-69
2022/06/11 00:14:19;;;;;;;6.50;5.90;;;17.50;99.90;;;;;;5053627;28;20218;-70
2022/06/11 00:16:46;;;;;;;5.70;5.20;;;17.50;99.90;;;;;;5053658;28;20584;-69
2022/06/11 00:19:13;;;;;;;6.10;5.60;;;17.40;99.90;;;;;;5053321;28;20766;-68
2022/06/11 00:21:44;;;;;;;6.10;5.60;;;17.40;99.90;;;;;;5053180;28;20295;-70
2022/06/11 00:24:11;;;;;;;5.40;5.00;;;17.30;99.90;;;;;;5053495;28;20254;-70
2022/06/11 00:26:39;;;;;;;6.28;5.70;;;17.30;99.90;;;;;;5053479;28;20632;-70
2022/06/11 00:29:07;;;;;;;5.03;4.65;;;17.20;99.90;;;;;;5053156;28;20737;-69
2022/06/11 00:31:34;;;;;;;5.50;5.10;;;17.10;99.90;;;;;;5053323;28;20836;-69
2022/06/11 00:34:02;;;;;;;5.45;5.05;;;17.20;99.90;;;;;;5052023;28;20298;-69
2022/06/11 00:36:30;;;;;;;4.93;4.53;;;17.20;99.90;;;;;;5053289;28;20239;-69
2022/06/11 00:38:57;;;;;;;5.97;5.38;;;17.10;99.90;;;;;;5053054;28;20219;-69
2022/06/11 00:41:27;;;;;;;5.78;5.28;;;17.00;99.90;;;;;;5053162;28;20203;-70
2022/06/11 00:43:54;;;;;;;5.32;4.93;;;17.00;99.90;;;;;;5053048;28;20286;-70
2022/06/11 00:46:53;;;;;;;5.68;5.18;;;17.00;99.90;;;;;;5052916;28;20302;-69
2022/06/11 00:49:38;;;;;;;5.78;5.28;;;17.00;99.90;;;;;;5052977;28;20228;-67
2022/06/11 00:52:21;;;;;;;6.25;5.43;;;17.00;99.90;;;;;;5052958;28;20623;-68
2022/06/11 00:55:01;;;;;;;6.20;5.40;;;17.00;99.90;;;;;;5151226;27;20618;-67
2022/06/11 00:57:31;;;;;;;5.43;5.00;;;16.90;99.90;;;;;;5151043;27;20691;-69
2022/06/11 01:00:02;;;;;;;7.55;5.53;;;16.90;99.90;;;;;;5161114;27;20562;-68
2022/06/11 01:02:30;;;;;;;5.57;5.07;;;16.90;99.90;;;;;;5171558;27;20195;-67
2022/06/11 01:04:59;;;;;;;9.20;5.70;;;16.90;99.90;;;;;;5171866;27;20199;-69
2022/06/11 01:08:14;;;;;;;5.93;5.43;;;16.90;99.90;;;;;;5171629;27;20290;-68
2022/06/11 01:10:57;;;;;;;6.32;5.82;;;16.90;99.90;;;;;;5107116;28;20222;-68
2022/06/11 01:13:34;;;;;;;7.07;5.70;;;16.90;99.90;;;;;;5171361;27;20597;-67
2022/06/11 01:16:05;;;;;;;6.22;5.72;;;16.90;99.90;;;;;;5171609;27;20278;-68
2022/06/11 01:18:41;;;;;;;6.43;5.90;;;16.80;99.90;;;;;;5171445;27;20293;-68
2022/06/11 01:21:17;;;;;;;6.78;6.18;;;16.80;99.90;;;;;;5171489;27;20219;-68
2022/06/11 01:24:19;;;;;;;7.82;6.60;;;16.80;99.90;;;;;;5171336;27;20756;-68
2022/06/11 01:27:16;;;;;;;7.15;6.45;;;16.80;99.90;;;;;;5171695;27;20305;-68
2022/06/11 01:29:54;;;;;;;6.80;6.10;;;16.80;99.90;;;;;;5142891;27;20227;-69
2022/06/11 01:32:31;;;;;;;6.88;6.05;;;16.70;99.90;;;;;;5171093;27;20291;-68
2022/06/11 01:35:10;;;;;;;6.95;6.30;;;16.70;99.90;;;;;;5171518;27;20227;-68
2022/06/11 01:37:42;;;;;;;6.85;6.25;;;16.70;99.90;;;;;;5171365;27;20203;-69
2022/06/11 01:40:18;;;;;;;6.10;5.50;;;16.60;99.90;;;;;;5171169;27;20609;-69
2022/06/11 01:42:49;;;;;;;6.40;5.65;;;16.60;99.90;;;;;;5170941;27;20289;-69
2022/06/11 01:45:22;;;;;;;5.90;5.22;;;16.60;99.90;;;;;;5170978;27;20217;-68
2022/06/11 01:47:50;;;;;;;6.65;5.15;;;16.50;99.90;;;;;;5171126;27;20297;-69
2022/06/11 01:50:20;;;;;;;5.50;4.85;;;16.50;99.90;;;;;;5171237;27;20219;-68
2022/06/11 01:53:20;;;;;;;4.90;4.50;;;16.40;99.90;;;;;;5170598;27;20206;-69
2022/06/11 01:56:14;;;;;;;6.50;5.18;;;16.50;99.90;;;;;;5171058;27;20290;-69
2022/06/11 01:59:04;;;;;;;5.68;5.00;;;16.40;99.90;;;;;;5164381;27;20204;-69
2022/06/11 02:01:46;;;;;;;5.78;4.60;;;16.40;99.90;;;;;;5170541;27;20302;-69
2022/06/11 02:04:24;;;;;;;5.85;5.03;;;16.40;99.90;;;;;;5169039;27;20210;-69
2022/06/11 02:07:01;;;;;;;5.53;5.03;;;16.40;99.90;;;;;;5156818;27;20209;-68
2022/06/11 02:09:36;;;;;;;4.90;4.50;;;16.40;99.90;;;;;;5156584;27;20309;-69
2022/06/11 02:12:11;;;;;;;4.65;4.25;;;16.40;99.90;;;;;;5157227;27;20204;-69
2022/06/11 02:14:46;;;;;;;5.03;4.63;;;16.40;99.90;;;;;;5158085;27;20226;-69
2022/06/11 02:17:19;;;;;;;5.13;4.63;;;16.40;99.90;;;;;;5157961;27;20298;-69
2022/06/11 02:19:52;;;;;;;5.45;4.95;;;16.30;99.90;;;;;;5157816;27;20306;-69
2022/06/11 02:22:22;;;;;;;5.78;4.43;;;16.30;99.90;;;;;;5157853;27;20190;-69
2022/06/11 02:24:53;;;;;;;5.15;4.75;;;16.20;99.90;;;;;;5157715;27;20361;-69
2022/06/11 02:27:24;;;;;;;4.68;4.38;;;16.20;99.90;;;;;;5157907;27;20560;-69
2022/06/11 02:29:53;;;;;;;5.40;4.90;;;16.10;99.90;;;;;;5157753;27;20310;-69
2022/06/11 02:32:25;;;;;;;6.05;4.60;;;16.10;99.90;;;;;;5157671;27;20294;-68
2022/06/11 02:34:54;;;;;;;5.57;5.07;;;16.10;99.90;;;;;;5157627;27;20310;-68
2022/06/11 02:37:24;;;;;;;5.88;5.38;;;15.90;99.90;;;;;;5157668;27;20282;-69
2022/06/11 02:39:53;;;;;;;6.38;5.88;;;15.80;99.90;;;;;;5157338;27;20314;-69
2022/06/11 02:42:23;;;;;;;6.00;5.45;;;15.80;99.90;;;;;;5157163;27;20739;-69
2022/06/11 02:44:50;;;;;;;5.97;5.30;;;15.80;99.90;;;;;;5157444;27;20293;-69
2022/06/11 02:47:18;;;;;;;5.15;4.65;;;15.70;99.90;;;;;;5157411;27;20293;-69
2022/06/11 02:49:47;;;;;;;5.97;5.38;;;15.70;99.90;;;;;;5157453;27;20321;-69
2022/06/11 02:52:16;;;;;;;5.32;4.80;;;15.70;99.90;;;;;;5157163;27;20203;-69
2022/06/11 02:54:44;;;;;;;6.18;5.60;;;15.70;99.90;;;;;;5157079;27;20670;-69
2022/06/11 02:57:14;;;;;;;5.10;4.70;;;15.70;99.90;;;;;;5157365;27;20618;-69
2022/06/11 02:59:42;;;;;;;6.15;5.60;;;15.60;99.90;;;;;;5157261;27;20219;-69
2022/06/11 03:02:09;;;;;;;6.00;5.40;;;15.60;99.90;;;;;;5157187;27;20210;-69
2022/06/11 03:04:36;;;;;;;5.75;5.25;;;15.60;99.90;;;;;;5157260;27;20298;-69
2022/06/11 03:07:05;;;;;;;5.88;5.40;;;15.60;99.90;;;;;;5156870;27;20224;-69
2022/06/11 03:09:35;;;;;;;5.70;5.20;;;15.60;99.90;;;;;;5157052;27;20318;-69
2022/06/11 03:12:03;;;;;;;5.70;5.20;;;15.60;99.90;;;;;;5157104;27;20294;-69
2022/06/11 03:14:29;;;;;;;5.97;5.35;;;15.70;99.90;;;;;;5156689;27;20309;-69
2022/06/11 03:16:57;;;;;;;5.07;4.63;;;15.80;99.90;;;;;;5155947;27;20202;-69
2022/06/11 03:19:23;;;;;;;5.00;4.60;;;15.80;99.90;;;;;;5156833;27;20222;-69
2022/06/11 03:21:54;;;;;;;7.18;5.40;;;15.80;99.90;;;;;;5156888;27;20230;-69
2022/06/11 03:24:23;;;;;;;5.65;5.05;;;15.70;99.90;;;;;;5156509;27;20207;-69
2022/06/11 03:26:51;;;;;;;5.93;5.40;;;15.50;99.90;;;;;;5156733;27;20295;-69
2022/06/11 03:29:19;;;;;;;6.85;4.95;;;15.40;99.90;;;;;;5156401;27;20795;-69
2022/06/11 03:31:47;;;;;;;4.75;4.35;;;15.40;99.90;;;;;;5156624;27;20258;-69
2022/06/11 03:34:14;;;;;;;5.20;4.70;;;15.20;99.90;;;;;;5156182;27;20620;-69
2022/06/11 03:36:42;;;;;;;5.68;5.18;;;15.10;99.90;;;;;;5156256;27;20289;-69
2022/06/11 03:39:11;;;;;;;5.70;5.20;;;15.30;99.90;;;;;;5156431;27;20254;-69
2022/06/11 03:41:40;;;;;;;4.78;4.35;;;15.30;99.90;;;;;;5156114;27;20210;-69
2022/06/11 03:44:07;;;;;;;5.50;4.97;;;15.40;99.90;;;;;;5156260;27;20606;-69
2022/06/11 03:46:34;;;;;;;5.05;4.55;;;15.40;99.90;;;;;;5156282;27;20294;-69
2022/06/11 03:49:01;;;;;;;4.55;4.15;;;15.50;99.90;;;;;;5156262;27;20631;-69
2022/06/11 03:51:27;;;;;;;5.35;4.85;;;15.50;99.90;;;;;;5155984;27;20290;-69
2022/06/11 03:53:54;;;;;;;5.40;4.90;;;15.60;99.90;;;;;;5155642;27;20232;-69
2022/06/11 03:56:21;;;;;;;6.43;5.75;;;15.60;99.90;;;;;;5156136;27;20293;-69
2022/06/11 03:58:50;;;;;;;5.40;4.90;;;15.50;99.90;;;;;;5155878;27;20296;-69
2022/06/11 04:01:19;;;;;;;4.88;4.57;;;15.40;99.90;;;;;;5156119;27;20227;-69
2022/06/11 04:03:49;;;;;;;4.80;4.40;;;15.30;99.90;;;;;;5155719;27;20661;-69
2022/06/11 04:06:18;;;;;;;5.40;4.90;;;15.40;99.90;;;;;;5155968;27;20257;-69
2022/06/11 04:08:45;;;;;;;5.30;4.90;;;15.50;99.90;;;;;;5155855;27;20287;-69
2022/06/11 04:11:12;;;;;;;5.18;4.78;;;15.50;99.90;;;;;;5155862;27;20338;-69
2022/06/11 04:13:41;;;;;;;5.10;4.70;;;15.60;99.90;;;;;;5155404;27;20291;-69
2022/06/11 04:16:20;;;;;;;5.32;4.72;;;15.70;99.90;;;;;;5155682;27;20845;-69
2022/06/11 04:18:48;;;;;;;5.68;4.63;;;15.80;99.90;;;;;;5155820;27;20234;-69
2022/06/11 04:21:16;;;;;;;5.40;5.00;;;15.80;99.90;;;;;;5155603;27;20234;-69
2022/06/11 04:23:46;;;;;;;5.75;5.25;;;15.80;99.90;;;;;;5155516;27;20203;-69
2022/06/11 04:26:17;;;;;;;5.30;4.80;;;15.70;99.90;;;;;;5155695;27;20294;-69
2022/06/11 04:28:44;;;;;;;5.88;5.30;;;15.60;99.90;;;;;;5155367;27;20302;-69
2022/06/11 04:31:15;;;;;;;5.47;5.07;;;15.50;99.90;;;;;;5155564;27;20318;-69
2022/06/11 04:33:43;;;;;;;5.93;5.43;;;15.50;99.90;;;;;;5155096;27;20297;-69
2022/06/11 04:36:11;;;;;;;6.20;4.97;;;15.60;99.90;;;;;;5155266;27;20293;-69
2022/06/11 04:38:39;;;;;;;5.47;5.00;;;15.70;99.90;;;;;;5155477;27;20205;-69
2022/06/11 04:41:07;;;;;;;5.75;5.35;;;15.80;99.90;;;;;;5155949;27;20592;-69
2022/06/11 04:43:34;;;;;;;6.78;5.30;;;15.80;99.90;;;;;;5154996;27;20298;-69
2022/06/11 04:46:01;;;;;;;6.05;5.53;;;15.80;99.90;;;;;;5155323;27;20286;-69
2022/06/11 04:48:30;;;;;;;5.88;5.38;;;15.90;99.90;;;;;;5155098;27;20289;-69
2022/06/11 04:50:57;;;;;;;6.20;5.70;;;15.90;99.90;;;;;;5155319;27;20234;-69
2022/06/11 04:53:25;;;;;;;6.05;5.55;;;15.90;99.90;;;;;;5154961;27;20219;-69
2022/06/11 04:55:52;;;;;;;6.22;5.72;;;15.70;99.90;;;;;;5155239;27;20652;-69
2022/06/11 04:58:19;;;;;;;5.95;5.45;;;15.60;99.90;;;;;;5155209;27;20683;-69
2022/06/11 05:00:46;;;;;;;6.57;5.93;;;15.50;99.90;;;;;;5154907;27;20309;-69
2022/06/11 05:03:13;;;;;;;5.75;5.20;;;15.40;99.90;;;;;;5154795;27;20293;-69
2022/06/11 05:05:43;;;;;;;5.97;5.47;;;15.40;99.90;;;;;;5155218;27;20288;-69
2022/06/11 05:08:11;;;;;;;6.07;5.57;;;15.50;99.90;;;;;;5155020;27;20307;-69
2022/06/11 05:10:39;;;;;;;6.05;5.45;;;15.50;99.90;;;;;;5155154;27;20334;-69
2022/06/11 05:13:07;;;;;;;6.25;5.50;;;15.70;99.90;;;;;;5154835;27;20323;-70
2022/06/11 05:15:35;;;;;;;5.90;5.40;;;15.80;99.90;;;;;;5155080;27;20307;-69
2022/06/11 05:18:02;;;;;;;5.72;5.22;;;15.90;99.90;;;;;;5155080;27;20210;-69
2022/06/11 05:20:29;;;;;;;6.78;5.78;;;16.10;99.90;;;;;;5155041;27;20310;-69
2022/06/11 05:22:58;;;;;;;6.25;5.40;;;16.10;99.90;;;;;;5154743;27;20207;-69
2022/06/11 05:25:24;;;;;;;6.20;5.60;;;16.10;99.90;;;;;;5154996;27;20270;-69
2022/06/11 05:27:51;;;;;;;6.93;5.63;;;16.10;99.90;;;;;;5154890;27;20759;-70
2022/06/11 05:30:21;;;;;;;6.47;5.88;;;16.10;99.90;;;;;;5154973;27;20313;-69
2022/06/11 05:32:48;;;;;;;6.43;5.72;;;16.00;99.90;;;;;;5154740;27;20650;-69
2022/06/11 05:35:18;;;;;;;5.90;5.40;;;16.00;99.90;;;;;;5154854;27;20318;-69
2022/06/11 05:37:46;;;;;;;6.40;5.80;;;16.00;99.90;;;;;;5154874;27;20374;-69
2022/06/11 05:40:17;;;;;;;6.18;5.68;;;15.90;99.90;;;;;;5156026;27;20313;-69
2022/06/11 05:42:47;;;;;;;5.88;5.32;;;16.00;99.90;;;;;;5158675;27;20313;-69
2022/06/11 05:45:16;;;;;;;6.70;6.10;;;16.00;99.90;;;;;;5158561;27;20225;-69
2022/06/11 05:47:43;;;;;;;7.45;6.25;;;16.00;99.90;;;;;;5158707;27;20210;-69
2022/06/11 05:50:14;;;;;;;6.50;6.00;;;16.10;99.90;;;;;;5158430;27;20322;-69
2022/06/11 05:52:45;;;;;;;6.88;6.18;;;16.20;99.90;;;;;;5158035;27;20283;-69
2022/06/11 05:55:13;;;;;;;7.10;6.38;;;16.20;99.90;;;;;;5158261;27;20223;-69
2022/06/11 05:57:41;;;;;;;6.57;5.90;;;16.30;99.90;;;;;;5158498;27;20203;-69
2022/06/11 06:00:13;;;;;;;6.57;5.97;;;16.30;99.90;;;;;;5158483;27;20223;-69
2022/06/11 06:02:41;;;;;;;5.40;5.00;;;16.40;99.90;;;;;;5158200;27;20298;-69
2022/06/11 06:05:09;;;;;;;6.10;5.70;;;16.50;99.90;;;;;;5158338;27;20204;-69
2022/06/11 06:07:36;;;;;;;6.55;5.95;;;16.50;99.90;;;;;;5158250;27;20207;-69
2022/06/11 06:10:03;;;;;;;6.13;5.70;;;16.60;99.90;;;;;;5157923;27;20312;-69
2022/06/11 06:12:32;;;;;;;8.70;5.65;;;16.60;99.90;;;;;;5157807;27;20207;-69
2022/06/11 06:15:04;;;;;;;6.30;5.70;;;16.70;99.90;;;;;;5158119;27;20220;-69
2022/06/11 06:17:31;;;;;;;6.30;5.80;;;16.80;99.90;;;;;;5158143;27;20297;-69
2022/06/11 06:19:57;;;;;;;5.63;5.13;;;16.80;99.90;;;;;;5158065;27;20260;-69
2022/06/11 06:22:24;;;;;;;5.72;5.18;;;16.90;99.90;;;;;;5158083;27;20204;-69
2022/06/11 06:24:51;;;;;;;5.57;5.07;;;17.00;99.90;;;;;;5158223;27;20295;-70
2022/06/11 06:27:18;;;;;;;5.93;5.43;;;17.00;99.90;;;;;;5158154;27;20231;-69
2022/06/11 06:29:45;;;;;;;5.93;5.32;;;17.10;99.90;;;;;;5157875;27;20306;-70
2022/06/11 06:32:13;;;;;;;6.18;5.57;;;17.20;99.90;;;;;;5157651;27;20291;-70
2022/06/11 06:34:40;;;;;;;5.20;4.70;;;17.30;99.90;;;;;;5157834;27;20764;-69
2022/06/11 06:37:07;;;;;;;5.55;5.15;;;17.40;99.90;;;;;;5157774;27;20627;-69
2022/06/11 06:39:33;;;;;;;5.53;5.13;;;17.50;99.90;;;;;;5157652;27;20646;-69
2022/06/11 06:42:00;;;;;;;5.07;4.60;;;17.60;99.90;;;;;;5157446;27;20752;-69
2022/06/11 06:44:27;;;;;;;5.20;4.75;;;17.70;99.90;;;;;;5157410;27;20296;-69
2022/06/11 06:46:55;;;;;;;6.03;5.53;;;17.80;99.90;;;;;;5157550;27;20200;-69
2022/06/11 06:49:23;;;;;;;5.75;4.95;;;18.00;99.90;;;;;;5157529;27;20317;-69
2022/06/11 06:51:50;;;;;;;5.25;4.70;;;18.10;99.90;;;;;;5157398;27;20593;-69
2022/06/11 06:54:17;;;;;;;5.80;5.30;;;18.20;99.90;;;;;;5157113;27;20205;-69
2022/06/11 06:56:44;;;;;;;5.45;4.85;;;18.40;99.90;;;;;;5157216;27;20658;-69
2022/06/11 06:59:12;;;;;;;5.80;5.30;;;18.60;99.90;;;;;;5157205;27;20259;-69
2022/06/11 07:01:39;;;;;;;5.90;5.50;;;19.00;99.90;;;;;;5157316;27;20301;-69
2022/06/11 07:04:06;;;;;;;5.90;5.40;;;19.30;99.90;;;;;;5157032;27;20202;-69
2022/06/11 07:06:35;;;;;;;5.15;4.80;;;19.50;99.90;;;;;;5156987;27;20436;-69
2022/06/11 07:09:02;;;;;;;5.67;4.93;;;19.60;99.90;;;;;;5156905;27;20233;-69
2022/06/11 07:11:29;;;;;;;6.33;5.80;;;19.70;99.90;;;;;;5157134;27;20527;-69
2022/06/11 07:13:56;;;;;;;5.80;4.77;;;19.80;99.90;;;;;;5156616;27;20455;-69
2022/06/11 07:16:27;;;;;;;6.57;5.40;;;20.00;99.90;;;;;;5156612;27;20480;-69
2022/06/11 07:18:57;;;;;;;5.27;4.67;;;20.30;99.90;;;;;;5156944;27;20532;-69
2022/06/11 07:21:27;;;;;;;5.00;4.60;;;20.50;99.90;;;;;;5157023;27;20451;-69
2022/06/11 07:23:59;;;;;;;5.20;4.80;;;20.70;99.90;;;;;;5156666;27;20527;-69
2022/06/11 07:26:33;;;;;;;7.57;4.67;;;20.70;99.90;;;;;;5156760;27;20520;-69
2022/06/11 07:29:04;;;;;;;5.10;4.67;;;20.60;99.90;;;;;;5156712;27;20546;-70
2022/06/11 07:31:32;;;;;;;4.80;4.50;;;20.50;99.90;;;;;;5157006;27;20429;-70
2022/06/11 07:34:00;;;;;;;5.07;4.57;;;20.50;99.90;;;;;;5156482;27;20535;-69
2022/06/11 07:36:27;;;;;;;4.67;4.30;;;20.40;99.90;;;;;;5156488;27;20552;-69
2022/06/11 07:38:55;;;;;;;4.83;4.53;;;20.30;99.90;;;;;;5156533;27;20530;-69
2022/06/11 07:41:22;;;;;;;5.17;4.67;;;20.30;99.90;;;;;;5156201;27;20984;-69
2022/06/11 07:43:49;;;;;;;4.30;3.90;;;20.40;99.90;;;;;;5156071;27;20526;-69
2022/06/11 07:46:16;;;;;;;7.60;5.57;;;20.50;99.90;;;;;;5156213;27;20526;-69
2022/06/11 07:48:43;;;;;;;4.73;4.30;;;20.70;99.90;;;;;;5156236;27;20450;-69
2022/06/11 07:51:10;;;;;;;6.53;4.17;;;21.40;99.90;;;;;;5156269;27;20464;-69
2022/06/11 07:53:37;;;;;;;5.30;3.80;;;22.20;99.70;;;;;;5155720;27;20458;-70
2022/06/11 07:56:06;;;;;;;4.20;3.90;;;23.50;96.90;;;;;;5156072;27;20477;-69
2022/06/11 07:58:33;;;;;;;6.70;4.87;;;24.40;95.10;;;;;;5156105;27;20520;-69
2022/06/11 08:01:00;;;;;;;4.97;4.57;;;24.50;93.60;;;;;;5156102;27;20548;-69
2022/06/11 08:03:28;;;;;;;4.43;4.10;;;24.90;92.50;;;;;;5155209;27;20481;-69
2022/06/11 08:05:56;;;;;;;4.27;3.87;;;25.30;90.10;;;;;;5156066;27;20449;-69
2022/06/11 08:08:24;;;;;;;4.27;3.97;;;25.00;87.80;;;;;;5155854;27;20540;-69
2022/06/11 08:10:50;;;;;;;4.23;3.80;;;24.80;89.10;;;;;;5156002;27;20914;-69
2022/06/11 08:13:19;;;;;;;8.07;5.70;;;24.70;90.10;;;;;;5155556;27;20455;-69
2022/06/11 08:15:49;;;;;;;4.53;4.13;;;24.40;89.60;;;;;;5155741;27;20591;-69
2022/06/11 08:18:16;;;;;;;4.30;4.00;;;24.10;89.90;;;;;;5155696;27;20447;-69
2022/06/11 08:20:43;;;;;;;5.17;3.90;;;24.00;92.00;;;;;;5155463;27;20553;-69
2022/06/11 08:23:11;;;;;;;4.00;3.70;;;23.70;90.10;;;;;;5155571;27;20846;-69
2022/06/11 08:25:38;;;;;;;4.17;3.77;;;23.60;89.30;;;;;;5155658;27;20428;-69
2022/06/11 08:28:05;;;;;;;9.00;4.67;;;23.50;89.60;;;;;;5155659;27;20530;-69
2022/06/11 08:30:35;;;;;;;4.10;3.80;;;23.70;90.10;;;;;;5156137;27;20886;-69
2022/06/11 08:33:02;;;;;;;4.10;3.70;;;24.20;88.90;;;;;;5155269;27;20561;-69
2022/06/11 08:35:31;;;;;;;4.27;3.70;;;24.40;87.90;;;;;;5155434;27;20587;-69
2022/06/11 08:37:59;;;;;;;3.90;3.50;;;24.80;85.80;;;;;;5155512;27;20527;-69
2022/06/11 08:40:30;;;;;;;4.70;4.40;;;24.90;84.40;;;;;;5155521;27;20463;-69
2022/06/11 08:43:01;;;;;;;5.17;4.07;;;24.80;81.80;;;;;;5155072;27;20524;-69
2022/06/11 08:45:38;;;;;;;4.23;3.80;;;24.80;83.50;;;;;;5155354;27;20524;-70
2022/06/11 08:48:13;;;;;;;4.23;3.83;;;25.70;82.30;;;;;;5155447;27;20528;-69
2022/06/11 08:50:48;;;;;;;4.40;4.00;;;26.00;78.40;;;;;;5155438;27;20547;-70
2022/06/11 08:53:17;;;;;;;4.10;3.80;;;26.50;76.00;;;;;;5154813;27;20457;-70
2022/06/11 08:55:44;;;;;;;3.97;3.67;;;27.30;75.70;;;;;;5155223;27;20563;-69
2022/06/11 08:58:25;;;;;;;3.67;3.47;;;27.80;71.40;;;;;;5155255;27;20521;-70
2022/06/11 09:00:59;;;;;;;4.00;3.70;;;28.20;68.60;;;;;;5155116;27;20498;-70
2022/06/11 09:03:46;;;;;;;4.30;4.00;;;28.30;66.70;;;;;;5147457;27;20453;-71
2022/06/11 09:06:31;;;;;;;3.77;3.53;;;28.70;63.70;;;;;;5139922;27;20524;-70
2022/06/11 09:09:04;;;;;;;4.10;3.70;;;29.20;61.50;;;;;;5133420;27;20465;-70
2022/06/11 09:11:52;;;;;;;4.10;3.80;;;29.90;58.40;;;;;;5133047;27;20448;-70
2022/06/11 09:14:45;;;;;;;3.97;3.67;;;30.60;56.80;;;;;;5132959;27;20845;-71
2022/06/11 09:17:25;;;;;;;3.97;3.67;;;31.10;54.30;;;;;;5126154;27;20568;-70
2022/06/11 09:20:14;;;;;;;4.00;3.70;;;32.10;52.70;;;;;;5137048;27;20549;-71
2022/06/11 09:23:08;;;;;;;4.60;4.30;;;33.20;52.20;;;;;;5137206;27;20517;-71
2022/06/11 09:25:47;;;;;;;9.20;7.53;;;33.60;47.70;;;;;;5137187;27;20438;-71
2022/06/11 09:28:27;;;;;;;3.67;3.37;;;33.30;46.60;;;;;;5136965;27;20524;-71
2022/06/11 09:31:02;;;;;;;3.70;3.40;;;33.50;45.80;;;;;;5137004;27;20557;-71
2022/06/11 09:33:37;;;;;;;3.50;3.30;;;33.60;44.90;;;;;;5137099;27;20520;-71
2022/06/11 09:36:06;;;;;;;3.67;3.47;;;33.50;44.60;;;;;;5136759;27;20532;-70
2022/06/11 09:38:42;;;;;;;4.37;3.50;;;34.30;47.10;;;;;;5136501;27;20538;-69
2022/06/11 09:41:23;;;;;;;3.30;3.10;;;34.70;43.30;;;;;;5136805;27;20552;-69
2022/06/11 09:43:57;;;;;;;4.33;4.00;;;34.30;43.20;;;;;;5136506;27;21022;-69
2022/06/11 09:46:30;;;;;;;3.80;3.60;;;33.90;43.10;;;;;;5136977;27;20538;-69
2022/06/11 09:49:18;;;;;;;3.40;3.20;;;34.20;42.70;;;;;;5136718;27;20523;-67
2022/06/11 09:51:51;;;;;;;5.13;4.17;;;33.80;42.80;;;;;;5136690;27;21007;-69
2022/06/11 09:54:32;;;;;;;4.07;3.70;;;32.40;44.60;;;;;;5136523;27;20450;-70
2022/06/11 09:57:17;;;;;;;3.90;3.60;;;31.20;47.20;;;;;;5136600;27;20835;-70
2022/06/11 09:59:47;;;;;;;3.87;3.57;;;31.10;47.60;;;;;;5136578;27;20463;-69
2022/06/11 10:02:22;;;;;;;5.50;4.17;;;31.70;49.10;;;;;;5136387;27;20544;-69
2022/06/11 10:04:52;;;;;;;3.90;3.60;;;32.20;46.20;;;;;;5136404;27;20458;-69
2022/06/11 10:07:24;;;;;;;3.60;3.37;;;31.30;48.60;;;;;;5136437;27;20434;-69
2022/06/11 10:09:57;;;;;;;4.50;4.20;;;31.10;49.80;;;;;;5136535;27;20561;-69
2022/06/11 10:12:28;;;;;;;4.00;3.70;;;31.40;48.10;;;;;;5136376;27;20510;-69
2022/06/11 10:15:00;;;;;;;4.57;4.00;;;32.90;45.60;;;;;;5136639;27;20529;-69
2022/06/11 10:17:30;;;;;;;3.90;3.70;;;33.90;45.30;;;;;;5136249;27;20564;-69
2022/06/11 10:20:04;;;;;;;3.97;3.77;;;34.20;43.00;;;;;;5136675;27;20462;-68
2022/06/11 10:22:34;;;;;;;4.00;3.70;;;34.70;44.70;;;;;;5136496;27;20514;-66
2022/06/11 10:25:13;;;;;;;3.80;3.60;;;35.30;41.70;;;;;;5136599;27;20510;-68
2022/06/11 10:27:44;;;;;;;4.00;3.70;;;34.70;42.00;;;;;;5136271;27;20419;-69
2022/06/11 10:30:25;;;;;;;4.40;4.10;;;34.30;42.30;;;;;;5136237;27;20464;-68
2022/06/11 10:32:55;;;;;;;4.13;3.83;;;34.10;44.10;;;;;;5135850;27;20533;-68
2022/06/11 10:35:38;;;;;;;3.90;3.67;;;33.50;43.60;;;;;;5135711;27;20529;-68
2022/06/11 10:38:19;;;;;;;4.10;3.80;;;33.20;43.90;;;;;;5135980;27;20525;-68
2022/06/11 10:40:49;;;;;;;4.60;4.23;;;32.10;44.70;;;;;;5136054;27;21025;-69
2022/06/11 10:43:23;;;;;;;4.63;4.30;;;30.80;46.90;;;;;;5136187;27;20603;-68
2022/06/11 10:45:50;;;;;;;4.77;4.43;;;29.80;49.10;;;;;;5136158;27;20423;-68
2022/06/11 10:48:20;;;;;;;4.23;3.80;;;29.30;49.50;;;;;;5136358;27;20845;-68
2022/06/11 10:50:49;;;;;;;4.73;4.43;;;29.00;50.90;;;;;;5135908;27;20462;-67
2022/06/11 10:53:22;;;;;;;4.40;4.10;;;28.60;52.10;;;;;;5135856;27;20459;-68
2022/06/11 10:55:52;;;;;;;4.10;3.90;;;28.20;53.50;;;;;;5135829;27;20526;-68
2022/06/11 10:58:28;;;;;;;4.97;4.57;;;27.70;55.30;;;;;;5135814;27;20533;-68
2022/06/11 11:00:58;;;;;;;4.60;4.20;;;27.20;57.00;;;;;;5135790;27;20553;-67
2022/06/11 11:03:32;;;;;;;5.17;4.23;;;26.80;56.30;;;;;;5135200;27;20999;-67
2022/06/11 11:06:06;;;;;;;5.67;4.70;;;26.40;57.90;;;;;;5135733;27;20525;-68
2022/06/11 11:08:34;;;;;;;4.60;4.20;;;26.10;57.60;;;;;;5135525;27;20510;-68
2022/06/11 11:11:02;;;;;;;4.90;4.60;;;26.20;59.10;;;;;;5135852;27;20494;-67
2022/06/11 11:13:35;;;;;;;4.77;4.40;;;26.40;59.20;;;;;;5135398;27;20478;-67
2022/06/11 11:16:15;;;;;;;10.33;9.40;;;26.60;58.30;;;;;;5135261;27;20542;-67
2022/06/11 11:18:46;;;;;;;6.60;6.00;;;27.10;59.70;;;;;;5135491;27;20879;-68
2022/06/11 11:21:23;;;;;;;4.50;4.20;;;27.50;60.90;;;;;;5135442;27;20541;-68
2022/06/11 11:23:51;;;;;;;4.63;4.23;;;27.90;58.00;;;;;;5134660;27;20443;-67
2022/06/11 11:26:25;;;;;;;5.73;5.23;;;28.00;57.10;;;;;;5134643;27;20445;-68
2022/06/11 11:28:58;;;;;;;6.10;5.60;;;28.20;57.60;;;;;;5134710;27;20969;-68
2022/06/11 11:31:31;;;;;;;5.27;4.77;;;28.30;56.70;;;;;;5134767;27;20534;-69
2022/06/11 11:34:02;;;;;;;4.73;4.40;;;28.40;57.10;;;;;;5134331;27;20896;-68
2022/06/11 11:36:32;;;;;;;4.60;4.20;;;28.40;56.30;;;;;;5134438;27;20512;-68
2022/06/11 11:39:29;;;;;;;4.50;4.10;;;28.50;57.50;;;;;;5133514;27;20506;-68
2022/06/11 11:42:09;;;;;;;4.80;4.43;;;28.40;56.80;;;;;;5134466;27;20579;-68
2022/06/11 11:44:39;;;;;;;5.30;4.90;;;28.30;54.60;;;;;;5134291;27;20518;-67
2022/06/11 11:47:14;;;;;;;5.27;4.00;;;28.30;54.60;;;;;;5134198;27;20533;-67
2022/06/11 11:49:42;;;;;;;4.80;4.50;;;27.80;54.50;;;;;;5134490;27;20462;-67
2022/06/11 11:52:15;;;;;;;5.20;4.80;;;27.30;56.30;;;;;;5134202;27;20529;-68
2022/06/11 11:54:54;;;;;;;4.83;4.53;;;27.00;56.90;;;;;;5134076;27;20521;-68
2022/06/11 11:57:22;;;;;;;5.13;4.70;;;26.70;57.80;;;;;;5134129;27;20552;-68
2022/06/11 11:59:57;;;;;;;5.33;4.67;;;26.70;57.80;;;;;;5134173;27;20566;-68
2022/06/11 12:02:27;;;;;;;4.50;4.10;;;26.90;57.60;;;;;;5133655;27;20443;-68
2022/06/11 12:04:57;;;;;;;4.90;4.50;;;27.00;57.50;;;;;;5134442;27;20866;-68
2022/06/11 12:07:33;;;;;;;5.33;4.93;;;27.20;57.10;;;;;;5134173;27;20454;-68
2022/06/11 12:10:10;;;;;;;4.53;4.13;;;27.50;56.20;;;;;;5133730;27;20552;-67
2022/06/11 12:12:37;;;;;;;4.90;4.50;;;27.90;57.00;;;;;;5134037;27;20449;-68
2022/06/11 12:15:17;;;;;;;4.50;4.03;;;27.80;55.50;;;;;;5133908;27;20531;-68
2022/06/11 12:17:49;;;;;;;4.90;4.60;;;27.90;55.80;;;;;;5133742;27;20491;-68
2022/06/11 12:20:22;;;;;;;4.90;4.50;;;27.70;55.30;;;;;;5133455;27;20495;-68
2022/06/11 12:22:55;;;;;;;5.37;4.97;;;27.40;56.00;;;;;;5134053;27;20464;-68
2022/06/11 12:25:29;;;;;;;5.10;4.63;;;27.30;59.20;;;;;;5133619;27;20549;-68
2022/06/11 12:27:57;;;;;;;5.50;5.10;;;27.30;58.40;;;;;;5133340;27;21001;-67
2022/06/11 12:30:26;;;;;;;5.47;5.07;;;27.40;57.40;;;;;;5133403;27;20553;-68
2022/06/11 12:32:53;;;;;;;4.30;4.10;;;27.30;56.50;;;;;;5133605;27;20521;-67
2022/06/11 12:35:26;;;;;;;5.37;4.90;;;27.00;57.40;;;;;;5133335;27;20526;-67
2022/06/11 12:38:00;;;;;;;5.00;4.60;;;27.10;57.90;;;;;;5133137;27;21087;-68
2022/06/11 12:40:33;;;;;;;4.37;4.00;;;27.20;57.30;;;;;;5133246;27;20564;-69
2022/06/11 12:43:14;;;;;;;4.20;3.90;;;27.20;56.90;;;;;;5133465;27;20446;-68
2022/06/11 12:45:50;;;;;;;4.60;4.20;;;27.20;56.60;;;;;;5133399;27;20854;-69
2022/06/11 12:48:46;;;;;;;4.90;4.40;;;27.40;56.80;;;;;;5133635;27;20870;-69
2022/06/11 12:51:20;;;;;;;4.73;4.43;;;27.50;56.40;;;;;;5119768;27;20582;-69
2022/06/11 12:54:00;;;;;;;5.40;4.90;;;27.70;56.70;;;;;;5133317;27;20466;-70
2022/06/11 12:56:54;;;;;;;4.27;3.97;;;27.90;55.40;;;;;;5133136;27;20436;-68
2022/06/11 12:59:45;;;;;;;4.87;4.47;;;28.10;55.90;;;;;;5133224;27;20654;-68
2022/06/11 13:02:44;;;;;;;4.53;4.13;;;28.30;55.90;;;;;;5133428;27;20509;-68
2022/06/11 13:05:30;;;;;;;5.10;4.60;;;28.30;54.50;;;;;;5133340;27;20522;-68
2022/06/11 13:08:11;;;;;;;5.37;4.97;;;28.10;55.30;;;;;;5132987;27;21023;-68
2022/06/11 13:10:44;;;;;;;5.03;4.73;;;27.70;55.30;;;;;;5132753;27;21023;-68
2022/06/11 13:13:44;;;;;;;4.43;4.10;;;27.80;55.10;;;;;;5133237;27;20934;-69